DW4277 Weather Reports


Display with metric or nautical units.
time (UTC)temp
F
wind
direction
speed
MPH
gust
MPH
rain 1hr
in
rain 24hr
in
rain mn
in
humidity
%
barometer
mb
20240521233135 60 311 13.0 31.0 0.01 0.18 0.01 91 1006.6
20240521231605 61 182 0.0 0.0 0.00 0.17 0.00 92 1006.4
20240521230100 61 182 0.0 0.0 0.00 0.17 0.00 92 1006.3
20240521224554 61 182 0.0 5.0 0.00 0.17 0.00 92 1006.1
20240521223052 61 177 4.0 16.0 0.00 0.17 0.00 92 1005.9
20240521221551 61 180 5.0 23.0 0.00 0.17 0.00 91 1005.8
20240521220047 61 163 9.0 27.0 0.00 0.17 0.00 91 1005.6
20240521214551 61 158 9.0 22.0 0.00 0.17 0.17 91 1005.4
20240521213049 61 175 13.0 25.0 0.00 0.17 0.17 91 1005.1
20240521211554 61 163 13.0 26.0 0.00 0.17 0.17 91 1004.8
20240521210041 61 183 10.0 28.0 0.00 0.17 0.17 91 1004.7
20240521204542 61 177 10.0 19.0 0.00 0.17 0.17 91 1004.7
20240521203038 61 181 6.0 18.0 0.00 0.17 0.17 92 1004.2
20240521201537 61 176 7.0 25.0 0.00 0.17 0.17 91 1003.8
20240521200040 61 197 6.0 18.0 0.00 0.17 0.17 91 1003.2
20240521194544 62 167 9.0 23.0 0.01 0.17 0.17 90 1003.3
20240521193041 62 161 13.0 24.0 0.02 0.17 0.17 90 1003.8
20240521191543 63 166 14.0 26.0 0.02 0.17 0.17 88 1004.1
20240521190033 65 150 12.0 39.0 0.02 0.17 0.17 85 1003.8
20240521184534 69 117 7.0 14.0 0.01 0.16 0.16 83 1003.1
20240521183031 70 121 11.0 17.0 0.00 0.15 0.15 78 1003.2
20240521181532 70 90 7.0 20.0 0.00 0.15 0.15 78 1002.9
20240521180036 70 98 10.0 23.0 0.00 0.15 0.15 77 1003.1
20240521174527 70 104 13.0 23.0 0.00 0.15 0.15 78 1003.2
20240521173034 71 75 12.0 22.0 0.00 0.15 0.15 78 1003.2
20240521171525 71 122 13.0 20.0 0.00 0.15 0.15 79 1003.4
20240521170023 72 115 8.0 20.0 0.00 0.15 0.15 79 1003.7
20240521164530 72 117 10.0 18.0 0.00 0.15 0.15 79 1003.8
20240521163018 72 115 8.0 24.0 0.00 0.15 0.15 79 1004.3
20240521161517 71 142 12.0 31.0 0.00 0.15 0.15 77 1004.5
20240521160017 72 135 10.0 20.0 0.00 0.15 0.15 78 1004.6
20240521154531 72 152 12.0 26.0 0.00 0.15 0.15 78 1004.7
20240521153015 72 175 10.0 30.0 0.00 0.15 0.15 76 1004.5
20240521151520 72 148 16.0 37.0 0.00 0.15 0.15 75 1004.8
20240521150024 72 150 7.0 19.0 0.01 0.15 0.15 78 1004.9
20240521144512 72 146 7.0 18.0 0.02 0.15 0.15 81 1004.8
20240521143011 71 104 8.0 24.0 0.03 0.15 0.15 83 1004.8
20240521141513 70 114 6.0 19.0 0.03 0.15 0.15 84 1005.1
20240521140031 70 119 14.0 25.0 0.02 0.14 0.14 83 1005.4
20240521134506 70 100 12.0 24.0 0.01 0.13 0.13 83 1005.6
20240521133003 71 120 13.0 21.0 0.00 0.12 0.12 81 1005.8
20240521131502 71 90 14.0 23.0 0.00 0.12 0.12 79 1006.0
20240521130002 71 111 11.0 29.0 0.00 0.12 0.12 80 1006.0
20240521124600 71 108 16.0 29.0 0.00 0.12 0.12 79 1006.0
20240521123101 71 126 19.0 34.0 0.00 0.12 0.12 77 1006.3
20240521121558 72 132 14.0 28.0 0.00 0.12 0.12 76 1006.8
20240521120054 72 105 13.0 28.0 0.00 0.12 0.12 77 1006.8
20240521114556 72 179 13.0 32.0 0.00 0.12 0.12 76 1006.9
20240521113117 72 127 12.0 28.0 0.00 0.12 0.12 78 1006.8
20240521111554 71 136 10.0 28.0 0.00 0.12 0.12 79 1007.0
20240521110044 71 138 10.0 20.0 0.00 0.12 0.12 80 1007.2
20240521104541 70 146 9.0 18.0 0.00 0.12 0.12 82 1007.6
20240521103040 70 125 1.0 20.0 0.00 0.12 0.12 82 1007.6
20240521101538 69 115 9.0 21.0 0.00 0.12 0.12 82 1007.7
20240521100036 69 111 11.0 22.0 0.00 0.12 0.12 84 1007.7
20240521094533 68 100 13.0 21.0 0.00 0.12 0.12 85 1007.9
20240521093030 68 96 8.0 19.0 0.00 0.12 0.12 85 1008.1
20240521091534 67 130 11.0 18.0 0.00 0.12 0.12 86 1008.2
20240521090026 66 112 7.0 16.0 0.00 0.12 0.12 86 1008.2
20240521084526 67 120 5.0 17.0 0.00 0.12 0.12 86 1008.5
20240521083024 67 136 7.0 15.0 0.00 0.12 0.12 86 1008.5
20240521081557 66 117 8.0 17.0 0.00 0.12 0.12 86 1008.6
20240521080025 66 134 7.0 16.0 0.00 0.12 0.12 88 1008.6
20240521074526 65 149 5.0 19.0 0.00 0.12 0.12 90 1008.7
20240521073018 65 127 6.0 18.0 0.00 0.12 0.12 91 1008.7
20240521071518 64 129 6.0 20.0 0.00 0.12 0.12 92 1008.9
20240521070015 64 140 8.0 18.0 0.00 0.12 0.12 92 1008.9
20240521064519 64 150 8.0 19.0 0.00 0.12 0.12 93 1008.9
20240521063013 63 140 10.0 22.0 0.00 0.12 0.12 93 1008.6
20240521061521 62 143 6.0 14.0 0.00 0.12 0.12 93 1008.8
20240521060008 62 168 11.0 18.0 0.00 0.12 0.12 93 1008.8
20240521054510 62 145 4.0 14.0 0.00 0.12 0.12 93 1008.6
20240521053005 61 138 7.0 13.0 0.00 0.12 0.12 93 1008.7
20240521051503 61 128 5.0 9.0 0.01 0.12 0.12 93 1008.6
20240521050108 61 140 0.0 10.0 0.04 0.12 0.12 93 1008.6
20240521044609 61 145 3.0 14.0 0.08 0.12 0.12 92 1008.4
20240521043058 60 155 3.0 14.0 0.12 0.12 0.12 92 1008.5
20240521041600 60 157 1.0 7.0 0.11 0.11 0.11 91 1008.5
20240521040058 60 157 0.0 6.0 0.08 0.08 0.08 91 1008.5
20240521034551 60 157 1.0 8.0 0.03 0.03 0.03 90 1008.5
20240521033050 60 157 4.0 9.0 0.00 0.00 0.00 89 1008.6
20240521031555 60 172 3.0 11.0 0.00 0.00 0.00 89 1009.2
20240521030046 60 157 0.0 4.0 0.00 0.00 0.00 88 1008.9
20240521024546 60 157 0.0 0.0 0.00 0.00 0.00 88 1008.6
20240521023052 60 157 0.0 0.0 0.00 0.00 0.00 87 1008.7
20240521021557 60 157 0.0 0.0 0.00 0.00 0.00 87 1008.6
20240521020047 60 157 0.0 0.0 0.00 0.00 0.00 87 1009.0
20240521014547 60 157 3.0 7.0 0.00 0.01 0.00 88 1008.9
20240521013037 61 157 0.0 4.0 0.00 0.01 0.00 88 1009.0
20240521011538 61 157 0.0 0.0 0.00 0.01 0.00 88 1009.1
20240521010036 61 157 0.0 0.0 0.00 0.01 0.00 87 1009.1
20240521004547 61 157 1.0 5.0 0.00 0.01 0.00 87 1009.2
20240521003032 62 157 1.0 6.0 0.00 0.01 0.00 86 1009.2
20240521001533 62 157 0.0 10.0 0.00 0.01 0.00 86 1009.4
20240521000047 63 176 0.0 10.0 0.00 0.01 0.00 86 1009.2
20240520234526 63 182 0.0 1.0 0.00 0.01 0.00 86 1009.2